^^
Meteo Knjazevac Station Historical Data
Daily Summary for July 24, 2021 Units:  Metric    English   Both
Daily Weekly Monthly Yearly Custom
  High: Low: Average:
Temperature: 10.4 °C 3.3 °C 7.1 °C
Dew Point: 5.6 °C 3.2 °C 4.6 °C
Humidity: 99% 72% 85%
Wind Speed: 12.9km/h 0km/h 5.6km/h
Wind Gust: 32.2km/h - -
Wind- - SSE
Pressure: 1008 hPa 1006.3 hPa -
Precipitation: 0 mm    
Historical Graphs
 
 
Tabular Data for July 24, 2021
Time Temperature Dew Point Pressure Wind Wind Speed Wind Gust Humidity Rainfall Rate (Hourly) solar Conditions
00:00 3.3 °C 3.2 °C 1006.7 hPa WSW 4.8 km/h 11.3 km/h 99% 0 mm 0 W/m2
00:10 3.3 °C 3.2 °C 1006.7 hPa SSW 3.2 km/h 9.7 km/h 99% 0 mm 0 W/m2
00:20 3.3 °C 3.2 °C 1006.7 hPa North 8 km/h 11.3 km/h 99% 0 mm 0 W/m2
00:30 3.4 °C 3.3 °C 1007 hPa NNE 11.3 km/h 16.1 km/h 99% 0 mm 0 W/m2
00:40 4.2 °C 4.1 °C 1006.7 hPa SSW 3.2 km/h 17.7 km/h 99% 0 mm 0 W/m2
00:50 5.2 °C 5.1 °C 1006.7 hPa SSE 4.8 km/h 19.3 km/h 99% 0 mm 0 W/m2
01:00 5.5 °C 4.8 °C 1006.7 hPa ESE 9.7 km/h 17.7 km/h 95% 0 mm 0 W/m2
01:10 4.9 °C 4.2 °C 1006.7 hPa NNE 9.7 km/h 12.9 km/h 95% 0 mm 0 W/m2
01:20 5 °C 4.3 °C 1006.7 hPa NNE 9.7 km/h 17.7 km/h 95% 0 mm 0 W/m2
01:30 5.2 °C 4.6 °C 1007 hPa NNE 8 km/h 20.9 km/h 96% 0 mm 0 W/m2
01:40 5.4 °C 4.7 °C 1006.7 hPa NNE 11.3 km/h 19.3 km/h 95% 0 mm 0 W/m2
01:50 5.2 °C 4.4 °C 1007 hPa NNE 4.8 km/h 14.5 km/h 95% 0 mm 0 W/m2
02:00 5.2 °C 4.7 °C 1007 hPa NNE 8 km/h 22.5 km/h 96% 0 mm 0 W/m2
02:10 5.3 °C 4.7 °C 1007 hPa NNE 4.8 km/h 14.5 km/h 96% 0 mm 0 W/m2
02:20 5.4 °C 5.1 °C 1007 hPa NNE 8 km/h 16.1 km/h 98% 0 mm 0 W/m2
02:30 5.7 °C 5.2 °C 1007 hPa NE 8 km/h 12.9 km/h 96% 0 mm 0 W/m2
02:40 6.2 °C 5.3 °C 1007 hPa NNE 4.8 km/h 12.9 km/h 94% 0 mm 0 W/m2
02:50 6.6 °C 5.5 °C 1006.7 hPa NE 3.2 km/h 11.3 km/h 93% 0 mm 0 W/m2
03:00 7 °C 5.4 °C 1006.7 hPa West 1.6 km/h 8 km/h 90% 0 mm 0 W/m2
03:10 7.1 °C 5.4 °C 1006.7 hPa Calm   8 km/h 89% 0 mm 0 W/m2
03:20 6.9 °C 5.4 °C 1006.7 hPa SW 1.6 km/h 12.9 km/h 90% 0 mm 0 W/m2
03:30 7.2 °C 5.5 °C 1006.7 hPa SW 8 km/h 16.1 km/h 89% 0 mm 0 W/m2
03:40 7.2 °C 5.3 °C 1006.7 hPa SSW 4.8 km/h 11.3 km/h 88% 0 mm 0 W/m2
03:50 7.1 °C 5.2 °C 1006.7 hPa SW 4.8 km/h 12.9 km/h 88% 0 mm 0 W/m2
04:00 7.3 °C 4.9 °C 1006.7 hPa SW 3.2 km/h 11.3 km/h 85% 0 mm 0 W/m2
04:10 7.2 °C 4.8 °C 1006.7 hPa SW 4.8 km/h 16.1 km/h 85% 0 mm 0 W/m2
04:20 7.3 °C 4.7 °C 1006.7 hPa SSW 9.7 km/h 19.3 km/h 83% 0 mm 0 W/m2
04:30 7.7 °C 4.7 °C 1006.3 hPa SSW 8 km/h 22.5 km/h 81% 0 mm 0 W/m2
04:40 7.8 °C 4.6 °C 1006.3 hPa South 3.2 km/h 12.9 km/h 80% 0 mm 0 W/m2
04:50 7.9 °C 4.7 °C 1006.3 hPa SW 4.8 km/h 14.5 km/h 80% 0 mm 0 W/m2
05:00 8.1 °C 4.7 °C 1006.3 hPa SW 4.8 km/h 17.7 km/h 79% 0 mm 0 W/m2
05:10 8 °C 4.6 °C 1006.3 hPa West 1.6 km/h 8 km/h 79% 0 mm 0 W/m2
05:20 7.7 °C 4.3 °C 1006.7 hPa North 3.2 km/h 9.7 km/h 79% 0 mm 0 W/m2
05:30 7.8 °C 4.3 °C 1006.7 hPa WSW 3.2 km/h 22.5 km/h 78% 0 mm 0 W/m2
05:40 7.8 °C 4.2 °C 1006.7 hPa NE 8 km/h 14.5 km/h 78% 0 mm 0 W/m2
05:50 7.7 °C 4.1 °C 1006.7 hPa ENE 3.2 km/h 16.1 km/h 78% 0 mm 0 W/m2
06:00 8 °C 4.2 °C 1007 hPa ENE 8 km/h 12.9 km/h 77% 0 mm 0 W/m2
06:10 8 °C 4.2 °C 1007 hPa ENE 4.8 km/h 12.9 km/h 77% 0 mm 0 W/m2
06:20 7.9 °C 4.2 °C 1007 hPa SSE 3.2 km/h 12.9 km/h 77% 0 mm 0 W/m2
06:30 7.8 °C 4.2 °C 1007 hPa North 1.6 km/h 8 km/h 78% 0 mm 0 W/m2
06:40 7.8 °C 4.2 °C 1007 hPa WNW 3.2 km/h 11.3 km/h 78% 0 mm 0 W/m2
06:50 7.7 °C 4.2 °C 1007.3 hPa NE 1.6 km/h 9.7 km/h 78% 0 mm 0 W/m2
07:00 7.6 °C 4 °C 1007.3 hPa NNE 3.2 km/h 12.9 km/h 78% 0 mm 5 W/m2
07:10 7.5 °C 4.1 °C 1007.3 hPa NNW 3.2 km/h 8 km/h 79% 0 mm 6 W/m2
07:20 7.5 °C 4.1 °C 1007.3 hPa SSE 4.8 km/h 8 km/h 79% 0 mm 18 W/m2
07:30 7.6 °C 4 °C 1007.7 hPa SE 8 km/h 12.9 km/h 78% 0 mm 38 W/m2
07:40 7.8 °C 4.2 °C 1007.7 hPa SE 4.8 km/h 14.5 km/h 78% 0 mm 36 W/m2
07:50 7.9 °C 4.1 °C 1008 hPa South 3.2 km/h 9.7 km/h 77% 0 mm 34 W/m2
08:00 7.8 °C 4.2 °C 1008 hPa SW 4.8 km/h 11.3 km/h 78% 0 mm 98 W/m2
08:10 8.1 °C 4.3 °C 1008 hPa SSW 3.2 km/h 14.5 km/h 77% 0 mm 102 W/m2
08:20 8.4 °C 4.6 °C 1007.7 hPa SSW 4.8 km/h 9.7 km/h 77% 0 mm 103 W/m2
08:30 8.7 °C 4.8 °C 1008 hPa SW 1.6 km/h 9.7 km/h 77% 0 mm 162 W/m2
08:40 9.1 °C 4.8 °C 1008 hPa SW 4.8 km/h 11.3 km/h 75% 0 mm 183 W/m2
08:50 9.5 °C 5.3 °C 1008 hPa SW 4.8 km/h 12.9 km/h 75% 0 mm 203 W/m2
09:00 9.9 °C 5.3 °C 1008 hPa SSW 9.7 km/h 20.9 km/h 73% 0 mm 140 W/m2
09:10 10.1 °C 5.3 °C 1008 hPa SSW 12.9 km/h 32.2 km/h 72% 0 mm 179 W/m2
09:20 10.1 °C 5.3 °C 1008 hPa SW 8 km/h 19.3 km/h 72% 0 mm 112 W/m2
09:30 10 °C 5.2 °C 1008 hPa SW 11.3 km/h 16.1 km/h 72% 0 mm 280 W/m2
09:40 10.4 °C 5.6 °C 1008 hPa SW 9.7 km/h 22.5 km/h 72% 0 mm 150 W/m2
Knjazevac, Serbia
Compliments of Weather Underground - 2 mb